sensor_id;sensor_type;location;lat;lon;timestamp;P1;durP1;ratioP1;P2;durP2;ratioP2
12155;SDS011;6141;49.092;8.516;2022-10-31T00:03:26;8.33;;;5.20;;
12155;SDS011;6141;49.092;8.516;2022-10-31T00:06:28;7.93;;;4.20;;
12155;SDS011;6141;49.092;8.516;2022-10-31T00:13:11;10.73;;;4.60;;
12155;SDS011;6141;49.092;8.516;2022-10-31T00:16:28;6.47;;;3.87;;
12155;SDS011;6141;49.092;8.516;2022-10-31T00:19:05;7.80;;;3.20;;
12155;SDS011;6141;49.092;8.516;2022-10-31T00:22:31;5.03;;;3.03;;
12155;SDS011;6141;49.092;8.516;2022-10-31T00:29:13;4.50;;;2.60;;
12155;SDS011;6141;49.092;8.516;2022-10-31T00:32:40;6.93;;;2.90;;
12155;SDS011;6141;49.092;8.516;2022-10-31T00:37:40;3.67;;;2.63;;
12155;SDS011;6141;49.092;8.516;2022-10-31T00:40:23;3.77;;;2.27;;
12155;SDS011;6141;49.092;8.516;2022-10-31T00:44:13;6.40;;;2.63;;
12155;SDS011;6141;49.092;8.516;2022-10-31T01:06:03;2.47;;;1.90;;
12155;SDS011;6141;49.092;8.516;2022-10-31T01:09:59;3.73;;;2.20;;
12155;SDS011;6141;49.092;8.516;2022-10-31T01:17:20;4.70;;;2.23;;
12155;SDS011;6141;49.092;8.516;2022-10-31T01:21:18;4.63;;;2.00;;
12155;SDS011;6141;49.092;8.516;2022-10-31T01:27:50;3.43;;;2.00;;
12155;SDS011;6141;49.092;8.516;2022-10-31T01:34:36;3.50;;;2.13;;
12155;SDS011;6141;49.092;8.516;2022-10-31T01:37:45;3.00;;;2.17;;
12155;SDS011;6141;49.092;8.516;2022-10-31T01:40:51;2.93;;;2.20;;
12155;SDS011;6141;49.092;8.516;2022-10-31T01:49:13;4.80;;;1.77;;
12155;SDS011;6141;49.092;8.516;2022-10-31T01:51:20;4.17;;;2.20;;
12155;SDS011;6141;49.092;8.516;2022-10-31T02:03:22;6.27;;;2.50;;
12155;SDS011;6141;49.092;8.516;2022-10-31T02:06:45;4.73;;;2.50;;
12155;SDS011;6141;49.092;8.516;2022-10-31T02:10:15;4.83;;;2.50;;
12155;SDS011;6141;49.092;8.516;2022-10-31T02:13:46;6.13;;;2.00;;
12155;SDS011;6141;49.092;8.516;2022-10-31T02:17:26;3.07;;;2.10;;
12155;SDS011;6141;49.092;8.516;2022-10-31T02:20:15;6.40;;;2.93;;
12155;SDS011;6141;49.092;8.516;2022-10-31T02:27:02;2.67;;;1.90;;
12155;SDS011;6141;49.092;8.516;2022-10-31T02:30:37;2.63;;;1.83;;
12155;SDS011;6141;49.092;8.516;2022-10-31T02:34:36;2.87;;;1.60;;
12155;SDS011;6141;49.092;8.516;2022-10-31T02:38:56;2.00;;;1.50;;
12155;SDS011;6141;49.092;8.516;2022-10-31T02:42:26;2.23;;;1.60;;
12155;SDS011;6141;49.092;8.516;2022-10-31T02:45:38;2.03;;;1.63;;
12155;SDS011;6141;49.092;8.516;2022-10-31T02:48:55;1.80;;;1.70;;
12155;SDS011;6141;49.092;8.516;2022-10-31T02:55:44;3.33;;;1.83;;
12155;SDS011;6141;49.092;8.516;2022-10-31T02:58:54;2.00;;;1.60;;
12155;SDS011;6141;49.092;8.516;2022-10-31T03:05:37;1.90;;;1.70;;
12155;SDS011;6141;49.092;8.516;2022-10-31T03:12:09;2.20;;;1.73;;
12155;SDS011;6141;49.092;8.516;2022-10-31T03:16:32;2.67;;;1.80;;
12155;SDS011;6141;49.092;8.516;2022-10-31T03:19:36;3.50;;;1.60;;
12155;SDS011;6141;49.092;8.516;2022-10-31T03:22:36;2.43;;;1.97;;
12155;SDS011;6141;49.092;8.516;2022-10-31T03:26:17;2.87;;;1.90;;
12155;SDS011;6141;49.092;8.516;2022-10-31T03:33:43;3.60;;;2.17;;
12155;SDS011;6141;49.092;8.516;2022-10-31T03:36:42;3.77;;;2.30;;
12155;SDS011;6141;49.092;8.516;2022-10-31T03:39:44;5.13;;;3.00;;
12155;SDS011;6141;49.092;8.516;2022-10-31T03:43:07;7.47;;;2.40;;
12155;SDS011;6141;49.092;8.516;2022-10-31T03:52:05;7.83;;;2.67;;
12155;SDS011;6141;49.092;8.516;2022-10-31T04:02:51;11.10;;;3.43;;
12155;SDS011;6141;49.092;8.516;2022-10-31T04:05:51;5.83;;;3.00;;
12155;SDS011;6141;49.092;8.516;2022-10-31T04:08:56;4.70;;;2.80;;
12155;SDS011;6141;49.092;8.516;2022-10-31T04:16:39;3.53;;;2.40;;
12155;SDS011;6141;49.092;8.516;2022-10-31T04:21:46;3.87;;;2.63;;
12155;SDS011;6141;49.092;8.516;2022-10-31T04:25:23;6.00;;;3.03;;
12155;SDS011;6141;49.092;8.516;2022-10-31T04:28:36;6.47;;;3.00;;
12155;SDS011;6141;49.092;8.516;2022-10-31T04:32:09;4.43;;;2.63;;
12155;SDS011;6141;49.092;8.516;2022-10-31T04:37:30;5.87;;;2.77;;
12155;SDS011;6141;49.092;8.516;2022-10-31T04:41:06;3.27;;;2.17;;
12155;SDS011;6141;49.092;8.516;2022-10-31T04:44:43;6.43;;;2.73;;
12155;SDS011;6141;49.092;8.516;2022-10-31T04:47:34;6.40;;;2.37;;
12155;SDS011;6141;49.092;8.516;2022-10-31T04:50:17;7.97;;;3.37;;
12155;SDS011;6141;49.092;8.516;2022-10-31T04:53:12;6.60;;;2.57;;
12155;SDS011;6141;49.092;8.516;2022-10-31T05:00:37;6.17;;;3.00;;
12155;SDS011;6141;49.092;8.516;2022-10-31T05:03:35;5.33;;;3.00;;
12155;SDS011;6141;49.092;8.516;2022-10-31T05:06:52;6.30;;;2.63;;
12155;SDS011;6141;49.092;8.516;2022-10-31T05:36:35;4.73;;;2.47;;
12155;SDS011;6141;49.092;8.516;2022-10-31T05:39:41;2.87;;;2.30;;
12155;SDS011;6141;49.092;8.516;2022-10-31T05:58:36;4.00;;;2.40;;
12155;SDS011;6141;49.092;8.516;2022-10-31T06:02:11;3.00;;;2.30;;
12155;SDS011;6141;49.092;8.516;2022-10-31T06:05:19;3.57;;;2.40;;
12155;SDS011;6141;49.092;8.516;2022-10-31T06:08:48;2.50;;;2.10;;
12155;SDS011;6141;49.092;8.516;2022-10-31T06:36:37;3.37;;;1.60;;
12155;SDS011;6141;49.092;8.516;2022-10-31T06:39:14;1.93;;;1.70;;
12155;SDS011;6141;49.092;8.516;2022-10-31T06:42:06;3.00;;;2.07;;
12155;SDS011;6141;49.092;8.516;2022-10-31T06:45:17;2.30;;;1.97;;
12155;SDS011;6141;49.092;8.516;2022-10-31T07:02:58;1.87;;;1.60;;
12155;SDS011;6141;49.092;8.516;2022-10-31T07:05:58;2.67;;;2.00;;
12155;SDS011;6141;49.092;8.516;2022-10-31T07:09:03;4.17;;;2.30;;
12155;SDS011;6141;49.092;8.516;2022-10-31T07:12:02;2.97;;;2.60;;
12155;SDS011;6141;49.092;8.516;2022-10-31T07:19:10;5.13;;;2.90;;
12155;SDS011;6141;49.092;8.516;2022-10-31T07:23:08;4.07;;;3.30;;
12155;SDS011;6141;49.092;8.516;2022-10-31T07:30:48;6.67;;;3.60;;
12155;SDS011;6141;49.092;8.516;2022-10-31T08:02:31;5.67;;;4.10;;
12155;SDS011;6141;49.092;8.516;2022-10-31T08:21:49;6.43;;;3.97;;
12155;SDS011;6141;49.092;8.516;2022-10-31T08:54:09;8.60;;;4.53;;
12155;SDS011;6141;49.092;8.516;2022-10-31T09:00:21;6.87;;;4.17;;
12155;SDS011;6141;49.092;8.516;2022-10-31T09:03:29;6.60;;;4.00;;
12155;SDS011;6141;49.092;8.516;2022-10-31T09:06:22;7.63;;;4.37;;
12155;SDS011;6141;49.092;8.516;2022-10-31T09:09:05;7.00;;;4.13;;
12155;SDS011;6141;49.092;8.516;2022-10-31T09:12:05;9.10;;;4.17;;
12155;SDS011;6141;49.092;8.516;2022-10-31T09:15:34;7.23;;;4.27;;
12155;SDS011;6141;49.092;8.516;2022-10-31T09:19:23;8.53;;;4.27;;
12155;SDS011;6141;49.092;8.516;2022-10-31T09:22:36;7.10;;;4.67;;
12155;SDS011;6141;49.092;8.516;2022-10-31T09:28:59;9.60;;;4.60;;
12155;SDS011;6141;49.092;8.516;2022-10-31T09:32:03;9.60;;;4.57;;
12155;SDS011;6141;49.092;8.516;2022-10-31T09:34:41;6.23;;;4.53;;
12155;SDS011;6141;49.092;8.516;2022-10-31T09:37:14;6.67;;;4.50;;
12155;SDS011;6141;49.092;8.516;2022-10-31T10:05:49;8.20;;;4.43;;
12155;SDS011;6141;49.092;8.516;2022-10-31T10:09:03;7.70;;;4.53;;
12155;SDS011;6141;49.092;8.516;2022-10-31T10:12:06;6.20;;;4.50;;
12155;SDS011;6141;49.092;8.516;2022-10-31T10:15:00;8.60;;;4.50;;
12155;SDS011;6141;49.092;8.516;2022-10-31T10:17:58;7.67;;;5.03;;
12155;SDS011;6141;49.092;8.516;2022-10-31T10:20:41;8.47;;;4.37;;
12155;SDS011;6141;49.092;8.516;2022-10-31T10:23:45;9.70;;;5.37;;
12155;SDS011;6141;49.092;8.516;2022-10-31T10:26:34;7.50;;;4.47;;
12155;SDS011;6141;49.092;8.516;2022-10-31T10:29:27;7.90;;;4.40;;
12155;SDS011;6141;49.092;8.516;2022-10-31T10:33:09;6.87;;;4.90;;
12155;SDS011;6141;49.092;8.516;2022-10-31T10:41:46;8.47;;;4.77;;
12155;SDS011;6141;49.092;8.516;2022-10-31T10:45:48;8.90;;;4.77;;
12155;SDS011;6141;49.092;8.516;2022-10-31T10:53:45;10.13;;;4.90;;
12155;SDS011;6141;49.092;8.516;2022-10-31T11:09:34;8.20;;;4.77;;
12155;SDS011;6141;49.092;8.516;2022-10-31T11:12:17;6.87;;;5.00;;
12155;SDS011;6141;49.092;8.516;2022-10-31T11:15:07;7.73;;;5.10;;
12155;SDS011;6141;49.092;8.516;2022-10-31T11:18:01;9.63;;;4.63;;
12155;SDS011;6141;49.092;8.516;2022-10-31T11:21:03;10.60;;;5.03;;
12155;SDS011;6141;49.092;8.516;2022-10-31T11:24:12;8.47;;;4.60;;
12155;SDS011;6141;49.092;8.516;2022-10-31T11:27:15;9.10;;;5.40;;
12155;SDS011;6141;49.092;8.516;2022-10-31T11:29:45;8.87;;;5.07;;
12155;SDS011;6141;49.092;8.516;2022-10-31T11:32:41;10.03;;;5.03;;
12155;SDS011;6141;49.092;8.516;2022-10-31T20:33:58;8.13;;;5.63;;
12155;SDS011;6141;49.092;8.516;2022-10-31T20:53:21;8.33;;;6.37;;
12155;SDS011;6141;49.092;8.516;2022-10-31T20:57:30;10.90;;;6.47;;
12155;SDS011;6141;49.092;8.516;2022-10-31T21:00:44;10.43;;;7.00;;
12155;SDS011;6141;49.092;8.516;2022-10-31T21:03:46;14.30;;;7.13;;
12155;SDS011;6141;49.092;8.516;2022-10-31T21:08:13;9.93;;;7.47;;
12155;SDS011;6141;49.092;8.516;2022-10-31T21:18:58;14.27;;;7.53;;
12155;SDS011;6141;49.092;8.516;2022-10-31T21:21:58;9.20;;;6.90;;
12155;SDS011;6141;49.092;8.516;2022-10-31T21:25:16;13.97;;;8.10;;
12155;SDS011;6141;49.092;8.516;2022-10-31T21:28:46;11.40;;;7.67;;
12155;SDS011;6141;49.092;8.516;2022-10-31T21:31:50;9.57;;;7.53;;
12155;SDS011;6141;49.092;8.516;2022-10-31T21:34:29;13.87;;;7.60;;
12155;SDS011;6141;49.092;8.516;2022-10-31T21:37:30;14.17;;;7.20;;
12155;SDS011;6141;49.092;8.516;2022-10-31T21:40:28;10.67;;;7.27;;
12155;SDS011;6141;49.092;8.516;2022-10-31T21:43:47;10.07;;;5.30;;
12155;SDS011;6141;49.092;8.516;2022-10-31T21:47:06;7.33;;;5.40;;
12155;SDS011;6141;49.092;8.516;2022-10-31T21:50:15;6.20;;;4.97;;
12155;SDS011;6141;49.092;8.516;2022-10-31T21:58:01;9.23;;;5.80;;
12155;SDS011;6141;49.092;8.516;2022-10-31T22:04:14;11.90;;;5.80;;
12155;SDS011;6141;49.092;8.516;2022-10-31T22:07:39;9.50;;;5.50;;
12155;SDS011;6141;49.092;8.516;2022-10-31T22:10:37;8.00;;;6.00;;
12155;SDS011;6141;49.092;8.516;2022-10-31T22:16:25;9.40;;;5.70;;
12155;SDS011;6141;49.092;8.516;2022-10-31T22:18:34;10.07;;;5.03;;
12155;SDS011;6141;49.092;8.516;2022-10-31T22:22:27;9.80;;;6.30;;
12155;SDS011;6141;49.092;8.516;2022-10-31T22:25:21;5.20;;;4.50;;
12155;SDS011;6141;49.092;8.516;2022-10-31T22:28:27;6.00;;;4.50;;
12155;SDS011;6141;49.092;8.516;2022-10-31T22:31:16;5.97;;;4.60;;
12155;SDS011;6141;49.092;8.516;2022-10-31T22:33:46;5.00;;;4.50;;
12155;SDS011;6141;49.092;8.516;2022-10-31T22:36:17;4.53;;;4.10;;
12155;SDS011;6141;49.092;8.516;2022-10-31T22:38:46;5.23;;;4.50;;
12155;SDS011;6141;49.092;8.516;2022-10-31T22:41:17;9.93;;;6.13;;
12155;SDS011;6141;49.092;8.516;2022-10-31T22:43:47;7.53;;;4.90;;
12155;SDS011;6141;49.092;8.516;2022-10-31T22:46:19;7.67;;;5.50;;
12155;SDS011;6141;49.092;8.516;2022-10-31T22:49:27;9.83;;;6.10;;
12155;SDS011;6141;49.092;8.516;2022-10-31T22:51:55;10.30;;;5.97;;
12155;SDS011;6141;49.092;8.516;2022-10-31T22:54:28;7.77;;;6.10;;
12155;SDS011;6141;49.092;8.516;2022-10-31T22:56:59;9.17;;;5.93;;
12155;SDS011;6141;49.092;8.516;2022-10-31T22:59:27;9.63;;;6.20;;
12155;SDS011;6141;49.092;8.516;2022-10-31T23:01:56;10.47;;;6.23;;
12155;SDS011;6141;49.092;8.516;2022-10-31T23:04:25;6.67;;;5.50;;
12155;SDS011;6141;49.092;8.516;2022-10-31T23:06:53;9.27;;;6.67;;
12155;SDS011;6141;49.092;8.516;2022-10-31T23:09:45;14.20;;;6.13;;
12155;SDS011;6141;49.092;8.516;2022-10-31T23:12:16;7.80;;;5.90;;
12155;SDS011;6141;49.092;8.516;2022-10-31T23:15:02;11.03;;;6.07;;
12155;SDS011;6141;49.092;8.516;2022-10-31T23:17:31;12.07;;;6.83;;
12155;SDS011;6141;49.092;8.516;2022-10-31T23:20:00;7.73;;;6.33;;
12155;SDS011;6141;49.092;8.516;2022-10-31T23:22:28;9.40;;;6.03;;
12155;SDS011;6141;49.092;8.516;2022-10-31T23:24:57;8.47;;;6.40;;
12155;SDS011;6141;49.092;8.516;2022-10-31T23:27:26;12.03;;;6.77;;
12155;SDS011;6141;49.092;8.516;2022-10-31T23:29:54;8.43;;;5.97;;
12155;SDS011;6141;49.092;8.516;2022-10-31T23:32:25;10.30;;;5.90;;
12155;SDS011;6141;49.092;8.516;2022-10-31T23:34:55;13.43;;;6.90;;
12155;SDS011;6141;49.092;8.516;2022-10-31T23:37:26;10.13;;;6.33;;
12155;SDS011;6141;49.092;8.516;2022-10-31T23:40:01;9.80;;;6.47;;
12155;SDS011;6141;49.092;8.516;2022-10-31T23:42:31;8.93;;;6.10;;
12155;SDS011;6141;49.092;8.516;2022-10-31T23:45:05;8.43;;;6.50;;
12155;SDS011;6141;49.092;8.516;2022-10-31T23:47:34;15.97;;;6.83;;
12155;SDS011;6141;49.092;8.516;2022-10-31T23:50:09;9.40;;;6.20;;
12155;SDS011;6141;49.092;8.516;2022-10-31T23:52:37;10.00;;;5.80;;
12155;SDS011;6141;49.092;8.516;2022-10-31T23:55:06;8.80;;;6.10;;
12155;SDS011;6141;49.092;8.516;2022-10-31T23:57:36;10.03;;;6.13;;
